createdAt,value
2018-10-16T00:00:15.631Z,18.80
2018-10-16T00:02:44.945Z,18.80
2018-10-16T00:05:13.642Z,18.80
2018-10-16T00:07:42.422Z,18.70
2018-10-16T00:10:11.066Z,18.80
2018-10-16T00:12:39.825Z,18.80
2018-10-16T00:15:09.863Z,18.80
2018-10-16T00:17:38.731Z,18.80
2018-10-16T00:20:07.559Z,18.80
2018-10-16T00:22:36.291Z,18.80
2018-10-16T00:25:05.479Z,18.80
2018-10-16T00:27:34.374Z,18.80
2018-10-16T00:30:03.099Z,18.90
2018-10-16T00:32:31.813Z,18.90
2018-10-16T00:35:00.443Z,18.90
2018-10-16T00:37:29.202Z,18.90
2018-10-16T00:39:57.830Z,18.80
2018-10-16T00:42:26.589Z,18.80
2018-10-16T00:44:55.345Z,18.80
2018-10-16T00:47:24.067Z,18.70
2018-10-16T00:49:52.801Z,18.80
2018-10-16T00:52:21.470Z,18.80
2018-10-16T00:54:50.134Z,18.70
2018-10-16T00:57:18.945Z,18.80
2018-10-16T00:59:47.694Z,18.90
2018-10-16T01:02:16.470Z,19.00
2018-10-16T01:04:45.180Z,18.90
2018-10-16T01:07:13.911Z,18.90
2018-10-16T01:09:42.551Z,19.00
2018-10-16T01:12:11.252Z,19.00
2018-10-16T01:14:39.974Z,18.90
2018-10-16T01:17:18.131Z,18.90
2018-10-16T01:19:46.798Z,18.90
2018-10-16T01:22:15.467Z,18.90
2018-10-16T01:24:58.919Z,18.90
2018-10-16T01:27:27.804Z,18.90
2018-10-16T01:29:56.565Z,18.90
2018-10-16T01:32:25.226Z,18.90
2018-10-16T01:34:53.899Z,18.90
2018-10-16T01:37:22.594Z,18.90
2018-10-16T01:39:51.356Z,18.80
2018-10-16T01:42:20.019Z,18.70
2018-10-16T01:44:48.906Z,18.80
2018-10-16T01:47:17.697Z,18.80
2018-10-16T01:49:46.421Z,18.80
2018-10-16T01:52:15.090Z,18.80
2018-10-16T01:54:43.746Z,18.70
2018-10-16T01:57:12.610Z,18.70
2018-10-16T01:59:41.243Z,18.70
2018-10-16T02:02:09.995Z,18.80
2018-10-16T02:04:38.683Z,18.80
2018-10-16T02:07:07.612Z,18.80
2018-10-16T02:09:36.314Z,18.70
2018-10-16T02:12:05.067Z,18.80
2018-10-16T02:14:33.715Z,18.80
2018-10-16T02:17:02.689Z,18.80
2018-10-16T02:19:31.261Z,18.70
2018-10-16T02:21:59.949Z,18.70
2018-10-16T02:24:28.638Z,18.70
2018-10-16T02:26:57.324Z,18.60
2018-10-16T02:29:25.990Z,18.60
2018-10-16T02:31:54.955Z,18.50
2018-10-16T02:34:23.634Z,18.50
2018-10-16T02:36:52.329Z,18.50
2018-10-16T02:39:20.951Z,18.60
2018-10-16T02:41:49.667Z,18.60
2018-10-16T02:44:18.335Z,18.60
2018-10-16T02:46:47.198Z,18.60
2018-10-16T02:49:15.886Z,18.60
2018-10-16T02:51:44.573Z,18.60
2018-10-16T02:54:13.359Z,18.60
2018-10-16T02:56:42.284Z,18.50
2018-10-16T02:59:11.024Z,18.50
2018-10-16T03:01:39.759Z,18.50
2018-10-16T03:04:08.476Z,18.60
2018-10-16T03:06:37.254Z,18.50
2018-10-16T03:09:07.970Z,18.50
2018-10-16T03:11:36.648Z,18.40
2018-10-16T03:14:05.296Z,18.40
2018-10-16T03:16:33.962Z,18.50
2018-10-16T03:19:02.666Z,18.50
2018-10-16T03:21:31.506Z,18.60
2018-10-16T03:24:00.125Z,18.60
2018-10-16T03:26:28.821Z,18.60
2018-10-16T03:28:57.510Z,18.50
2018-10-16T03:31:26.374Z,18.40
2018-10-16T03:33:55.051Z,18.30
2018-10-16T03:36:24.003Z,18.20
2018-10-16T03:38:52.730Z,18.30
2018-10-16T03:41:21.451Z,18.10
2018-10-16T03:43:59.046Z,18.10
2018-10-16T03:46:28.155Z,18.20
2018-10-16T03:48:56.893Z,17.60
2018-10-16T03:51:25.807Z,17.30
2018-10-16T03:53:55.923Z,17.20
2018-10-16T03:56:25.362Z,17.30
2018-10-16T03:58:54.055Z,17.20
2018-10-16T04:01:23.773Z,17.40
2018-10-16T04:03:52.598Z,17.30
2018-10-16T04:06:30.534Z,17.20
2018-10-16T04:08:59.263Z,17.00
2018-10-16T04:11:27.987Z,17.00
2018-10-16T04:13:56.743Z,17.00
2018-10-16T04:16:25.462Z,16.90
2018-10-16T04:18:54.155Z,16.90
2018-10-16T04:21:22.958Z,16.80
2018-10-16T04:23:51.718Z,16.80
2018-10-16T04:26:20.800Z,16.70
2018-10-16T04:28:49.568Z,16.70
2018-10-16T04:31:18.323Z,16.60
2018-10-16T04:33:47.143Z,16.50
2018-10-16T04:36:16.187Z,16.60
2018-10-16T04:38:44.913Z,16.50
2018-10-16T04:41:13.652Z,16.50
2018-10-16T04:43:42.521Z,16.50
2018-10-16T04:46:11.456Z,16.40
2018-10-16T04:48:40.190Z,16.40
2018-10-16T04:51:08.847Z,16.40
2018-10-16T04:53:37.566Z,16.40
2018-10-16T04:56:11.262Z,16.50
2018-10-16T04:58:40.122Z,16.50
2018-10-16T05:01:08.978Z,16.50
2018-10-16T05:03:37.699Z,16.50
2018-10-16T05:06:06.424Z,16.50
2018-10-16T05:08:35.140Z,16.50
2018-10-16T05:11:03.814Z,16.40
2018-10-16T05:13:32.482Z,16.30
2018-10-16T05:16:01.210Z,16.30
2018-10-16T05:18:29.954Z,16.30
2018-10-16T05:20:58.966Z,16.20
2018-10-16T05:23:27.878Z,16.20
2018-10-16T05:25:56.603Z,16.20
2018-10-16T05:28:25.337Z,16.20
2018-10-16T05:30:54.164Z,16.20
2018-10-16T05:33:22.814Z,16.20
2018-10-16T05:35:51.615Z,16.20
2018-10-16T05:38:20.357Z,16.10
2018-10-16T05:40:49.085Z,16.10
2018-10-16T05:43:17.978Z,16.00
2018-10-16T05:45:47.335Z,16.00
2018-10-16T05:48:16.099Z,16.00
2018-10-16T05:50:45.054Z,16.00
2018-10-16T05:53:13.800Z,15.90
2018-10-16T05:55:42.615Z,15.90
2018-10-16T05:58:11.442Z,15.90
2018-10-16T06:00:43.000Z,15.90
2018-10-16T06:03:11.786Z,15.90
2018-10-16T06:05:40.571Z,15.80
2018-10-16T06:08:09.572Z,15.80
2018-10-16T06:10:38.459Z,15.80
2018-10-16T06:13:07.246Z,15.80
2018-10-16T06:15:35.982Z,15.80
2018-10-16T06:18:04.998Z,15.90
2018-10-16T06:20:33.796Z,15.90
2018-10-16T06:23:02.491Z,15.90
2018-10-16T06:25:31.423Z,15.90
2018-10-16T06:28:04.885Z,16.00
2018-10-16T06:30:33.653Z,16.00
2018-10-16T06:33:02.534Z,16.00
2018-10-16T06:35:31.430Z,16.00
2018-10-16T06:38:00.143Z,16.00
2018-10-16T06:40:29.080Z,16.00
2018-10-16T06:42:57.762Z,16.10
2018-10-16T06:45:26.503Z,16.10
2018-10-16T06:47:55.350Z,16.10
2018-10-16T06:50:24.133Z,16.10
2018-10-16T06:52:52.886Z,16.20
2018-10-16T06:55:21.739Z,16.30
2018-10-16T06:57:55.613Z,16.30
2018-10-16T07:00:24.484Z,16.30
2018-10-16T07:02:53.287Z,16.40
2018-10-16T07:05:22.098Z,16.40
2018-10-16T07:07:50.794Z,16.50
2018-10-16T07:10:19.598Z,16.50
2018-10-16T07:12:48.278Z,16.60
2018-10-16T07:15:17.007Z,16.70
2018-10-16T07:17:45.790Z,16.70
2018-10-16T07:20:15.048Z,16.70
2018-10-16T07:22:43.806Z,16.70
2018-10-16T07:25:12.617Z,16.70
2018-10-16T07:27:41.566Z,16.70
2018-10-16T07:30:12.725Z,16.70
2018-10-16T07:32:41.430Z,16.80
2018-10-16T07:35:10.572Z,16.80
2018-10-16T07:37:40.143Z,16.80
2018-10-16T07:40:09.891Z,16.90
2018-10-16T07:42:38.764Z,16.90
2018-10-16T07:45:07.924Z,17.00
2018-10-16T07:47:36.965Z,17.00
2018-10-16T07:50:08.643Z,17.00
2018-10-16T07:52:37.403Z,17.00
2018-10-16T07:55:08.090Z,17.10
2018-10-16T07:57:36.817Z,17.10
2018-10-16T08:00:06.567Z,17.20
2018-10-16T08:02:35.527Z,17.30
2018-10-16T08:05:04.312Z,17.30
2018-10-16T08:07:32.999Z,17.30
2018-10-16T08:10:01.750Z,17.40
2018-10-16T08:12:30.475Z,17.40
2018-10-16T08:14:59.284Z,17.40
2018-10-16T08:17:38.014Z,17.40
2018-10-16T08:20:06.782Z,17.50
2018-10-16T08:22:35.477Z,17.50
2018-10-16T08:25:04.406Z,17.60
2018-10-16T08:27:33.253Z,17.70
2018-10-16T08:30:01.996Z,17.70
2018-10-16T08:32:30.646Z,17.80
2018-10-16T08:34:59.342Z,17.80
2018-10-16T08:39:47.732Z,17.90
2018-10-16T08:42:59.843Z,18.00
2018-10-16T08:45:39.642Z,18.10
2018-10-16T08:50:20.863Z,18.20
2018-10-16T08:52:49.512Z,18.30
2018-10-16T08:55:18.210Z,18.30
2018-10-16T08:57:46.915Z,18.30
2018-10-16T09:00:15.594Z,18.30
2018-10-16T09:02:44.938Z,18.20
2018-10-16T09:05:13.637Z,18.20
2018-10-16T09:07:42.761Z,18.10
2018-10-16T09:10:11.510Z,18.10
2018-10-16T09:12:40.531Z,18.10
2018-10-16T09:15:09.315Z,18.10
2018-10-16T09:17:38.089Z,18.10
2018-10-16T09:20:07.299Z,18.00
2018-10-16T09:22:36.055Z,18.10
2018-10-16T09:25:05.486Z,18.10
2018-10-16T09:27:34.255Z,18.10
2018-10-16T09:30:03.052Z,18.20
2018-10-16T09:32:31.850Z,18.30
2018-10-16T09:35:00.627Z,18.30
2018-10-16T09:37:29.475Z,18.40
2018-10-16T09:39:58.206Z,18.40
2018-10-16T09:42:27.001Z,18.50
2018-10-16T09:44:56.634Z,18.60
2018-10-16T09:47:25.491Z,18.70
2018-10-16T09:49:54.227Z,18.80
2018-10-16T09:52:23.015Z,18.90
2018-10-16T09:54:51.733Z,19.00
2018-10-16T09:57:29.838Z,19.00
2018-10-16T09:59:58.587Z,19.10
2018-10-16T10:02:27.317Z,19.20
2018-10-16T10:04:56.243Z,19.30
2018-10-16T10:07:25.055Z,19.40
2018-10-16T10:09:53.673Z,19.50
2018-10-16T10:12:22.408Z,19.50
2018-10-16T10:14:51.246Z,19.60
2018-10-16T10:17:20.088Z,19.70
2018-10-16T10:19:48.878Z,19.70
2018-10-16T10:22:17.561Z,19.70
2018-10-16T10:24:46.235Z,19.80
2018-10-16T10:27:15.027Z,19.90
2018-10-16T10:29:43.707Z,20.10
2018-10-16T10:32:12.310Z,20.20
2018-10-16T10:34:40.975Z,20.20
2018-10-16T10:37:09.827Z,20.20
2018-10-16T10:39:38.507Z,20.30
2018-10-16T10:42:07.218Z,20.40
2018-10-16T10:44:35.954Z,20.50
2018-10-16T11:04:36.770Z,21.60
2018-10-16T11:24:30.213Z,21.90
2018-10-16T11:44:21.341Z,22.00
2018-10-16T12:04:13.781Z,21.50
2018-10-16T12:24:06.447Z,21.60
2018-10-16T12:44:02.267Z,21.50
2018-10-16T13:03:54.821Z,21.90
2018-10-16T13:23:46.791Z,22.00
2018-10-16T13:26:23.732Z,22.00
2018-10-16T13:28:59.828Z,21.90
2018-10-16T13:31:41.692Z,22.00
2018-10-16T13:34:22.052Z,21.80
2018-10-16T13:54:15.215Z,21.30
2018-10-16T14:14:08.713Z,21.70
2018-10-16T14:34:05.259Z,21.40
2018-10-16T14:53:59.325Z,20.30
2018-10-16T15:13:54.090Z,20.00
2018-10-16T15:16:33.183Z,19.90
2018-10-16T15:19:10.447Z,19.90
2018-10-16T15:21:48.035Z,19.90
2018-10-16T15:24:25.687Z,19.80
2018-10-16T15:44:17.875Z,19.00
2018-10-16T16:04:14.423Z,18.30
2018-10-16T16:24:09.636Z,17.60
2018-10-16T16:26:48.253Z,17.40
2018-10-16T16:29:23.697Z,17.30
2018-10-16T16:31:59.475Z,17.30
2018-10-16T16:34:35.506Z,17.20
2018-10-16T16:54:29.289Z,16.40
2018-10-16T17:14:23.995Z,15.80
2018-10-16T17:34:17.468Z,15.40
2018-10-16T17:54:14.541Z,15.30
2018-10-16T18:14:09.637Z,15.00
2018-10-16T18:34:05.266Z,14.70
2018-10-16T18:36:40.404Z,14.70
2018-10-16T18:39:17.749Z,14.70
2018-10-16T18:41:54.080Z,14.70
2018-10-16T18:44:32.880Z,14.60
2018-10-16T19:04:31.959Z,14.40
2018-10-16T19:24:27.506Z,14.20
2018-10-16T19:44:24.053Z,13.80
2018-10-16T20:04:14.766Z,13.50
2018-10-16T20:24:08.554Z,13.30
2018-10-16T20:26:51.670Z,13.20
2018-10-16T20:29:31.222Z,13.10
2018-10-16T20:32:07.165Z,13.20
2018-10-16T20:34:43.841Z,13.20
2018-10-16T20:54:40.169Z,13.00
2018-10-16T21:14:34.473Z,13.00
2018-10-16T21:34:30.418Z,12.70
2018-10-16T21:54:22.963Z,12.30
2018-10-16T22:14:18.583Z,12.20
2018-10-16T22:34:13.285Z,12.20
2018-10-16T22:36:49.829Z,12.20
2018-10-16T22:39:25.895Z,12.30
2018-10-16T22:42:05.457Z,12.30
2018-10-16T22:44:41.824Z,12.20
2018-10-16T23:04:33.704Z,12.10
2018-10-16T23:24:25.345Z,12.10
2018-10-16T23:27:02.984Z,12.00
2018-10-16T23:29:39.045Z,11.90
2018-10-16T23:32:18.608Z,12.00
2018-10-16T23:34:54.240Z,11.90
2018-10-16T23:54:45.255Z,11.70
